Time,TemperatureF,DewpointF,PressureIn,WindDirection,WindDirectionDegrees,WindSpeedMPH,WindSpeedGustMPH,Humidity,HourlyPrecipIn,Conditions,Clouds,dailyrainin,SoftwareType,DateUTC
2017-06-23 00:00:00,59.1,51.2,30.05,NNE,32,0.0,0.0,75,0.00,,,0.00,Wunderground v.1.15,2017-06-23 07:00:00,
2017-06-23 00:06:00,58.8,50.9,30.05,SSW,198,1.0,2.0,75,0.00,,,0.00,Wunderground v.1.15,2017-06-23 07:06:00,
2017-06-23 00:11:00,58.2,50.3,30.05,SSW,198,1.0,1.0,75,0.00,,,0.00,Wunderground v.1.15,2017-06-23 07:11:00,
2017-06-23 00:16:00,58.3,50.4,30.05,SSW,199,1.0,2.0,75,0.00,,,0.00,Wunderground v.1.15,2017-06-23 07:16:00,
2017-06-23 00:20:00,58.7,50.8,30.05,SSW,198,1.0,1.0,75,0.00,,,0.00,Wunderground v.1.15,2017-06-23 07:20:00,
2017-06-23 00:26:00,58.7,51.2,30.06,NNW,329,1.0,2.0,76,0.00,,,0.00,Wunderground v.1.15,2017-06-23 07:26:00,
2017-06-23 00:31:00,58.4,51.6,30.06,NNW,345,1.0,2.0,78,0.00,,,0.00,Wunderground v.1.15,2017-06-23 07:31:00,
2017-06-23 00:37:00,58.2,51.4,30.06,NNW,347,1.0,2.0,78,0.00,,,0.00,Wunderground v.1.15,2017-06-23 07:37:00,
2017-06-23 00:42:00,57.3,50.8,30.06,NNW,345,1.0,1.0,79,0.00,,,0.00,Wunderground v.1.15,2017-06-23 07:42:00,
2017-06-23 00:48:00,56.9,50.5,30.06,NNW,347,0.0,1.0,79,0.00,,,0.00,Wunderground v.1.15,2017-06-23 07:48:00,
2017-06-23 00:53:00,56.6,50.5,30.07,ENE,60,0.0,1.0,80,0.00,,,0.00,Wunderground v.1.15,2017-06-23 07:53:00,
2017-06-23 00:59:00,56.2,50.8,30.07,ENE,60,0.0,1.0,82,0.00,,,0.00,Wunderground v.1.15,2017-06-23 07:59:00,
2017-06-23 01:04:00,56.0,50.6,30.07,ENE,60,0.0,4.0,82,0.00,,,0.00,Wunderground v.1.15,2017-06-23 08:04:00,
2017-06-23 01:10:00,55.9,50.8,30.07,ENE,60,0.0,4.0,83,0.00,,,0.00,Wunderground v.1.15,2017-06-23 08:10:00,
2017-06-23 01:15:00,55.8,50.7,30.07,SSE,155,0.0,4.0,83,0.00,,,0.00,Wunderground v.1.15,2017-06-23 08:15:00,
2017-06-23 01:20:00,55.6,50.8,30.07,SSE,155,0.0,4.0,84,0.00,,,0.00,Wunderground v.1.15,2017-06-23 08:20:00,
2017-06-23 01:25:00,55.3,50.9,30.07,SSE,155,0.0,4.0,85,0.00,,,0.00,Wunderground v.1.15,2017-06-23 08:25:00,
2017-06-23 01:30:00,54.8,50.7,30.07,SSE,155,0.0,4.0,86,0.00,,,0.00,Wunderground v.1.15,2017-06-23 08:30:00,
2017-06-23 01:36:00,54.5,50.7,30.07,WSW,246,0.0,4.0,87,0.00,,,0.00,Wunderground v.1.15,2017-06-23 08:36:00,
2017-06-23 01:41:00,54.0,51.1,30.07,WSW,246,0.0,4.0,90,0.00,,,0.00,Wunderground v.1.15,2017-06-23 08:41:00,
2017-06-23 01:46:00,53.7,51.1,30.07,WSW,246,0.0,4.0,91,0.00,,,0.00,Wunderground v.1.15,2017-06-23 08:46:00,
2017-06-23 01:51:00,53.7,51.1,30.07,SW,215,0.0,4.0,91,0.00,,,0.00,Wunderground v.1.15,2017-06-23 08:51:00,
2017-06-23 01:57:00,53.6,51.3,30.07,East,101,0.0,4.0,92,0.00,,,0.00,Wunderground v.1.15,2017-06-23 08:57:00,
2017-06-23 02:02:00,53.6,51.0,30.07,East,100,0.0,4.0,91,0.00,,,0.00,Wunderground v.1.15,2017-06-23 09:02:00,
2017-06-23 02:07:00,53.5,50.6,30.08,East,100,0.0,4.0,90,0.00,,,0.00,Wunderground v.1.15,2017-06-23 09:07:00,
2017-06-23 02:12:00,53.4,50.2,30.08,East,101,0.0,4.0,89,0.00,,,0.00,Wunderground v.1.15,2017-06-23 09:12:00,
2017-06-23 02:18:00,53.4,50.2,30.08,North,349,0.0,4.0,89,0.00,,,0.00,Wunderground v.1.15,2017-06-23 09:18:00,
2017-06-23 02:23:00,52.9,49.4,30.08,NNW,347,0.0,4.0,88,0.00,,,0.00,Wunderground v.1.15,2017-06-23 09:23:00,
2017-06-23 02:29:00,52.6,49.4,30.08,NNW,347,0.0,4.0,89,0.00,,,0.00,Wunderground v.1.15,2017-06-23 09:29:00,
2017-06-23 02:34:00,52.2,49.1,30.08,NNW,347,0.0,4.0,89,0.00,,,0.00,Wunderground v.1.15,2017-06-23 09:34:00,
2017-06-23 02:40:00,52.1,49.6,30.08,NNW,347,0.0,4.0,91,0.00,,,0.00,Wunderground v.1.15,2017-06-23 09:40:00,
2017-06-23 02:45:00,52.0,49.5,30.08,NNW,347,0.0,4.0,91,0.00,,,0.00,Wunderground v.1.15,2017-06-23 09:45:00,
2017-06-23 02:51:00,52.1,49.6,30.08,NE,53,0.0,4.0,91,0.00,,,0.00,Wunderground v.1.15,2017-06-23 09:51:00,
2017-06-23 02:56:00,52.0,49.5,30.08,NE,53,0.0,4.0,91,0.00,,,0.00,Wunderground v.1.15,2017-06-23 09:56:00,
2017-06-23 03:01:00,51.8,49.0,30.08,NE,54,0.0,4.0,90,0.00,,,0.00,Wunderground v.1.15,2017-06-23 10:01:00,
2017-06-23 03:06:00,51.4,48.6,30.08,NE,54,0.0,4.0,90,0.00,,,0.00,Wunderground v.1.15,2017-06-23 10:06:00,
2017-06-23 03:11:00,51.4,48.9,30.08,NE,53,0.0,4.0,91,0.00,,,0.00,Wunderground v.1.15,2017-06-23 10:11:00,
2017-06-23 03:16:00,51.2,48.7,30.09,NE,54,0.0,4.0,91,0.00,,,0.00,Wunderground v.1.15,2017-06-23 10:16:00,
2017-06-23 03:22:00,51.1,48.6,30.09,NE,53,0.0,4.0,91,0.00,,,0.00,Wunderground v.1.15,2017-06-23 10:22:00,
2017-06-23 03:28:00,51.1,48.6,30.09,NE,52,0.0,4.0,91,0.00,,,0.00,Wunderground v.1.15,2017-06-23 10:28:00,
2017-06-23 03:33:00,51.0,47.9,30.09,NE,52,0.0,4.0,89,0.00,,,0.00,Wunderground v.1.15,2017-06-23 10:33:00,
2017-06-23 03:38:00,50.5,47.7,30.09,NE,53,0.0,4.0,90,0.00,,,0.00,Wunderground v.1.15,2017-06-23 10:38:00,
2017-06-23 03:43:00,50.3,47.5,30.09,NE,52,0.0,4.0,90,0.00,,,0.00,Wunderground v.1.15,2017-06-23 10:43:00,
2017-06-23 03:48:00,50.1,47.3,30.09,NE,53,0.0,4.0,90,0.00,,,0.00,Wunderground v.1.15,2017-06-23 10:48:00,
2017-06-23 03:52:00,50.2,47.7,30.09,NE,52,0.0,4.0,91,0.00,,,0.00,Wunderground v.1.15,2017-06-23 10:52:00,
2017-06-23 03:58:00,50.1,47.9,30.09,NW,320,0.0,4.0,92,0.00,,,0.00,Wunderground v.1.15,2017-06-23 10:58:00,
2017-06-23 04:03:00,50.1,47.9,30.09,NW,321,0.0,4.0,92,0.00,,,0.00,Wunderground v.1.15,2017-06-23 11:03:00,
2017-06-23 04:08:00,49.9,47.1,30.09,NW,320,0.0,4.0,90,0.00,,,0.00,Wunderground v.1.15,2017-06-23 11:08:00,
2017-06-23 04:13:00,49.7,47.2,30.09,NW,320,0.0,4.0,91,0.00,,,0.00,Wunderground v.1.15,2017-06-23 11:13:00,
2017-06-23 04:18:00,49.5,47.0,30.09,NW,321,0.0,4.0,91,0.00,,,0.00,Wunderground v.1.15,2017-06-23 11:18:00,
2017-06-23 04:23:00,49.3,47.4,30.09,NW,320,0.0,4.0,93,0.00,,,0.00,Wunderground v.1.15,2017-06-23 11:23:00,
2017-06-23 04:28:00,49.2,46.7,30.09,NNW,338,0.0,4.0,91,0.00,,,0.00,Wunderground v.1.15,2017-06-23 11:28:00,
2017-06-23 04:34:00,49.1,46.6,30.09,NNW,338,0.0,4.0,91,0.00,,,0.00,Wunderground v.1.15,2017-06-23 11:34:00,
2017-06-23 04:39:00,48.9,46.7,30.09,NNW,339,0.0,4.0,92,0.00,,,0.00,Wunderground v.1.15,2017-06-23 11:39:00,
2017-06-23 04:44:00,48.7,46.5,30.09,SE,124,0.0,4.0,92,0.00,,,0.00,Wunderground v.1.15,2017-06-23 11:44:00,
2017-06-23 04:49:00,48.6,46.7,30.09,SE,124,0.0,4.0,93,0.00,,,0.00,Wunderground v.1.15,2017-06-23 11:49:00,
2017-06-23 04:54:00,48.3,46.4,30.09,ESE,120,0.0,4.0,93,0.00,,,0.00,Wunderground v.1.15,2017-06-23 11:54:00,
2017-06-23 04:59:00,48.0,46.1,30.10,ESE,120,0.0,4.0,93,0.00,,,0.00,Wunderground v.1.15,2017-06-23 11:59:00,
2017-06-23 05:04:00,47.8,46.2,30.10,ESE,118,0.0,4.0,94,0.00,,,0.00,Wunderground v.1.15,2017-06-23 12:04:00,
2017-06-23 05:09:00,47.9,46.5,30.10,ESE,118,0.0,4.0,95,0.00,,,0.00,Wunderground v.1.15,2017-06-23 12:09:00,
2017-06-23 05:14:00,47.9,46.5,30.10,ESE,118,0.0,4.0,95,0.00,,,0.00,Wunderground v.1.15,2017-06-23 12:14:00,
2017-06-23 05:20:00,47.7,46.3,30.10,ESE,119,0.0,4.0,95,0.00,,,0.00,Wunderground v.1.15,2017-06-23 12:20:00,
2017-06-23 05:25:00,47.9,46.8,30.10,ESE,119,0.0,4.0,96,0.00,,,0.00,Wunderground v.1.15,2017-06-23 12:25:00,
2017-06-23 05:30:00,47.6,46.2,30.10,ESE,118,0.0,4.0,95,0.00,,,0.00,Wunderground v.1.15,2017-06-23 12:30:00,
2017-06-23 05:35:00,47.4,46.0,30.10,ESE,119,0.0,4.0,95,0.00,,,0.00,Wunderground v.1.15,2017-06-23 12:35:00,
2017-06-23 05:40:00,47.4,46.3,30.10,ESE,118,0.0,4.0,96,0.00,,,0.00,Wunderground v.1.15,2017-06-23 12:40:00,
2017-06-23 05:46:00,47.4,46.3,30.10,ESE,119,0.0,4.0,96,0.00,,,0.00,Wunderground v.1.15,2017-06-23 12:46:00,
2017-06-23 05:52:00,47.6,46.8,30.11,ESE,118,0.0,4.0,97,0.00,,,0.00,Wunderground v.1.15,2017-06-23 12:52:00,
2017-06-23 05:57:00,47.7,46.9,30.11,ESE,118,0.0,4.0,97,0.00,,,0.00,Wunderground v.1.15,2017-06-23 12:57:00,
2017-06-23 06:02:00,47.2,46.1,30.11,NE,36,0.0,0.0,96,0.00,,,0.00,Wunderground v.1.15,2017-06-23 13:02:00,
2017-06-23 06:08:00,47.1,46.0,30.11,NE,36,0.0,0.0,96,0.00,,,0.00,Wunderground v.1.15,2017-06-23 13:08:00,
2017-06-23 06:13:00,47.0,45.6,30.11,NE,40,0.0,0.0,95,0.00,,,0.00,Wunderground v.1.15,2017-06-23 13:13:00,
2017-06-23 06:18:00,47.2,45.8,30.12,East,92,0.0,0.0,95,0.00,,,0.00,Wunderground v.1.15,2017-06-23 13:18:00,
2017-06-23 06:23:00,47.5,46.1,30.12,East,92,0.0,0.0,95,0.00,,,0.00,Wunderground v.1.15,2017-06-23 13:23:00,
2017-06-23 06:28:00,47.6,46.0,30.12,East,92,0.0,0.0,94,0.00,,,0.00,Wunderground v.1.15,2017-06-23 13:28:00,
2017-06-23 06:34:00,47.5,45.6,30.12,East,92,0.0,0.0,93,0.00,,,0.00,Wunderground v.1.15,2017-06-23 13:34:00,
2017-06-23 06:38:00,48.1,46.2,30.12,East,92,0.0,0.0,93,0.00,,,0.00,Wunderground v.1.15,2017-06-23 13:38:00,
2017-06-23 06:43:00,48.7,46.8,30.12,East,92,0.0,0.0,93,0.00,,,0.00,Wunderground v.1.15,2017-06-23 13:43:00,
2017-06-23 06:48:00,49.6,47.7,30.12,East,92,0.0,0.0,93,0.00,,,0.00,Wunderground v.1.15,2017-06-23 13:48:00,
2017-06-23 06:53:00,50.8,48.8,30.12,East,92,0.0,0.0,93,0.00,,,0.00,Wunderground v.1.15,2017-06-23 13:53:00,
2017-06-23 06:59:00,51.6,49.6,30.13,East,91,0.0,0.0,93,0.00,,,0.00,Wunderground v.1.15,2017-06-23 13:59:00,
2017-06-23 07:04:00,52.5,50.5,30.13,East,92,0.0,0.0,93,0.00,,,0.00,Wunderground v.1.15,2017-06-23 14:04:00,
2017-06-23 07:09:00,53.5,50.6,30.13,East,92,0.0,0.0,90,0.00,,,0.00,Wunderground v.1.15,2017-06-23 14:09:00,
2017-06-23 07:14:00,53.8,50.0,30.13,East,92,0.0,0.0,87,0.00,,,0.00,Wunderground v.1.15,2017-06-23 14:14:00,
2017-06-23 07:20:00,54.7,50.6,30.13,East,91,0.0,0.0,86,0.00,,,0.00,Wunderground v.1.15,2017-06-23 14:20:00,
2017-06-23 07:25:00,55.8,51.7,30.13,East,91,0.0,0.0,86,0.00,,,0.00,Wunderground v.1.15,2017-06-23 14:25:00,
2017-06-23 07:30:00,56.5,52.0,30.13,East,92,0.0,0.0,85,0.00,,,0.00,Wunderground v.1.15,2017-06-23 14:30:00,
2017-06-23 07:36:00,57.0,52.5,30.12,East,91,0.0,0.0,85,0.00,,,0.00,Wunderground v.1.15,2017-06-23 14:36:00,
2017-06-23 07:41:00,57.0,51.2,30.13,SW,233,0.0,0.0,81,0.00,,,0.00,Wunderground v.1.15,2017-06-23 14:41:00,
2017-06-23 07:47:00,57.2,50.4,30.13,WSW,238,0.0,0.0,78,0.00,,,0.00,Wunderground v.1.15,2017-06-23 14:47:00,
2017-06-23 07:52:00,57.7,51.2,30.13,WSW,238,0.0,0.0,79,0.00,,,0.00,Wunderground v.1.15,2017-06-23 14:52:00,
2017-06-23 07:57:00,58.2,52.4,30.13,WSW,257,0.0,0.0,81,0.00,,,0.00,Wunderground v.1.15,2017-06-23 14:57:00,
2017-06-23 08:02:00,58.6,51.8,30.13,WSW,257,0.0,0.0,78,0.00,,,0.00,Wunderground v.1.15,2017-06-23 15:02:00,
2017-06-23 08:08:00,59.7,53.2,30.13,WSW,257,0.0,0.0,79,0.00,,,0.00,Wunderground v.1.15,2017-06-23 15:08:00,
2017-06-23 08:13:00,61.0,53.4,30.13,WSW,258,0.0,0.0,76,0.00,,,0.00,Wunderground v.1.15,2017-06-23 15:13:00,
2017-06-23 08:18:00,61.4,53.0,30.13,WSW,257,0.0,0.0,74,0.00,,,0.00,Wunderground v.1.15,2017-06-23 15:18:00,
2017-06-23 08:23:00,61.8,53.4,30.13,WSW,257,0.0,0.0,74,0.00,,,0.00,Wunderground v.1.15,2017-06-23 15:23:00,
2017-06-23 08:28:00,62.6,53.8,30.13,WSW,256,0.0,0.0,73,0.00,,,0.00,Wunderground v.1.15,2017-06-23 15:28:00,
2017-06-23 08:33:00,63.4,53.0,30.13,WSW,252,0.0,0.0,69,0.00,,,0.00,Wunderground v.1.15,2017-06-23 15:33:00,
2017-06-23 08:38:00,63.6,53.6,30.13,WSW,250,0.0,0.0,70,0.00,,,0.00,Wunderground v.1.15,2017-06-23 15:38:00,
2017-06-23 08:43:00,64.3,54.7,30.13,WSW,250,0.0,0.0,71,0.00,,,0.00,Wunderground v.1.15,2017-06-23 15:43:00,
2017-06-23 08:48:00,65.3,52.8,30.13,WSW,248,0.0,0.0,64,0.00,,,0.00,Wunderground v.1.15,2017-06-23 15:48:00,
2017-06-23 08:53:00,66.2,55.7,30.12,WSW,245,0.0,0.0,69,0.00,,,0.00,Wunderground v.1.15,2017-06-23 15:53:00,
2017-06-23 08:58:00,65.8,54.9,30.12,WSW,255,0.0,2.0,68,0.00,,,0.00,Wunderground v.1.15,2017-06-23 15:58:00,
2017-06-23 09:04:00,65.5,53.4,30.12,West,269,1.0,1.0,65,0.00,,,0.00,Wunderground v.1.15,2017-06-23 16:04:00,
2017-06-23 09:09:00,65.7,53.6,30.12,WSW,245,1.0,1.0,65,0.00,,,0.00,Wunderground v.1.15,2017-06-23 16:09:00,
2017-06-23 09:14:00,66.5,56.0,30.12,West,259,0.0,1.0,69,0.00,,,0.00,Wunderground v.1.15,2017-06-23 16:14:00,
2017-06-23 09:19:00,68.0,55.8,30.11,SSE,149,0.0,1.0,65,0.00,,,0.00,Wunderground v.1.15,2017-06-23 16:19:00,
2017-06-23 09:24:00,69.0,56.3,30.11,SSE,166,0.0,0.0,64,0.00,,,0.00,Wunderground v.1.15,2017-06-23 16:24:00,
2017-06-23 09:29:00,69.8,52.4,30.11,ESE,110,0.0,2.0,54,0.00,,,0.00,Wunderground v.1.15,2017-06-23 16:29:00,
2017-06-23 09:35:00,71.1,52.6,30.11,ESE,111,0.0,0.0,52,0.00,,,0.00,Wunderground v.1.15,2017-06-23 16:35:00,
2017-06-23 09:40:00,71.9,53.8,30.11,SW,214,0.0,0.0,53,0.00,,,0.00,Wunderground v.1.15,2017-06-23 16:40:00,
2017-06-23 09:45:00,72.1,55.5,30.11,West,271,0.0,0.0,56,0.00,,,0.00,Wunderground v.1.15,2017-06-23 16:45:00,
2017-06-23 09:50:00,71.6,54.1,30.10,West,277,0.0,0.0,54,0.00,,,0.00,Wunderground v.1.15,2017-06-23 16:50:00,
2017-06-23 09:55:00,71.6,53.0,30.10,West,267,0.0,0.0,52,0.00,,,0.00,Wunderground v.1.15,2017-06-23 16:55:00,
2017-06-23 10:00:00,71.9,56.3,30.10,SW,226,1.0,1.0,58,0.00,,,0.00,Wunderground v.1.15,2017-06-23 17:00:00,
2017-06-23 10:05:00,72.4,53.2,30.10,West,262,1.0,1.0,51,0.00,,,0.00,Wunderground v.1.15,2017-06-23 17:05:00,
2017-06-23 10:10:00,72.5,52.8,30.10,West,269,1.0,1.0,50,0.00,,,0.00,Wunderground v.1.15,2017-06-23 17:10:00,
2017-06-23 10:15:00,72.8,54.7,30.10,West,269,1.0,1.0,53,0.00,,,0.00,Wunderground v.1.15,2017-06-23 17:15:00,
2017-06-23 10:21:00,73.1,53.4,30.10,WSW,257,0.0,1.0,50,0.00,,,0.00,Wunderground v.1.15,2017-06-23 17:21:00,
2017-06-23 10:27:00,73.4,56.7,30.10,WNW,290,1.0,3.0,56,0.00,,,0.00,Wunderground v.1.15,2017-06-23 17:27:00,
2017-06-23 10:32:00,73.7,53.3,30.09,West,269,1.0,1.0,49,0.00,,,0.00,Wunderground v.1.15,2017-06-23 17:32:00,
2017-06-23 10:37:00,74.2,55.4,30.09,WSW,255,1.0,2.0,52,0.00,,,0.00,Wunderground v.1.15,2017-06-23 17:37:00,
2017-06-23 10:42:00,74.4,57.2,30.09,West,273,1.0,2.0,55,0.00,,,0.00,Wunderground v.1.15,2017-06-23 17:42:00,
2017-06-23 10:47:00,74.9,56.1,30.09,West,276,1.0,2.0,52,0.00,,,0.00,Wunderground v.1.15,2017-06-23 17:47:00,
2017-06-23 10:53:00,75.3,56.5,30.09,WSW,239,1.0,1.0,52,0.00,,,0.00,Wunderground v.1.15,2017-06-23 17:53:00,
2017-06-23 10:58:00,75.8,55.3,30.09,WSW,248,1.0,2.0,49,0.00,,,0.00,Wunderground v.1.15,2017-06-23 17:58:00,
2017-06-23 11:03:00,76.2,57.8,30.09,SW,229,1.0,2.0,53,0.00,,,0.00,Wunderground v.1.15,2017-06-23 18:03:00,
2017-06-23 11:09:00,76.9,56.8,30.09,WSW,249,1.0,2.0,50,0.00,,,0.00,Wunderground v.1.15,2017-06-23 18:09:00,
2017-06-23 11:14:00,77.5,54.5,30.09,WSW,239,1.0,1.0,45,0.00,,,0.00,Wunderground v.1.15,2017-06-23 18:14:00,
2017-06-23 11:19:00,78.3,59.2,30.09,SW,224,1.0,2.0,52,0.00,,,0.00,Wunderground v.1.15,2017-06-23 18:19:00,
2017-06-23 11:24:00,78.6,56.1,30.09,SW,235,1.0,3.0,46,0.00,,,0.00,Wunderground v.1.15,2017-06-23 18:24:00,
2017-06-23 11:29:00,79.2,49.9,30.08,SW,218,2.0,3.0,36,0.00,,,0.00,Wunderground v.1.15,2017-06-23 18:29:00,
2017-06-23 11:34:00,79.9,44.8,30.08,SW,221,1.0,2.0,29,0.00,,,0.00,Wunderground v.1.15,2017-06-23 18:34:00,
2017-06-23 11:39:00,80.9,55.0,30.08,SW,229,1.0,2.0,41,0.00,,,0.00,Wunderground v.1.15,2017-06-23 18:39:00,
2017-06-23 11:45:00,81.0,51.5,30.08,WSW,248,1.0,1.0,36,0.00,,,0.00,Wunderground v.1.15,2017-06-23 18:45:00,
2017-06-23 11:50:00,81.4,54.1,30.08,SSW,208,1.0,1.0,39,0.00,,,0.00,Wunderground v.1.15,2017-06-23 18:50:00,
2017-06-23 11:55:00,81.9,53.8,30.08,SW,226,1.0,2.0,38,0.00,,,0.00,Wunderground v.1.15,2017-06-23 18:55:00,
2017-06-23 12:01:00,81.9,54.5,30.07,SW,236,1.0,1.0,39,0.00,,,0.00,Wunderground v.1.15,2017-06-23 19:01:00,
2017-06-23 12:07:00,82.5,55.7,30.07,SSW,205,1.0,1.0,40,0.00,,,0.00,Wunderground v.1.15,2017-06-23 19:07:00,
2017-06-23 12:12:00,82.8,48.2,30.07,WSW,245,1.0,2.0,30,0.00,,,0.00,Wunderground v.1.15,2017-06-23 19:12:00,
2017-06-23 12:17:00,83.0,53.3,30.07,South,188,1.0,2.0,36,0.00,,,0.00,Wunderground v.1.15,2017-06-23 19:17:00,
2017-06-23 12:22:00,83.5,53.0,30.07,WSW,240,1.0,2.0,35,0.00,,,0.00,Wunderground v.1.15,2017-06-23 19:22:00,
2017-06-23 12:28:00,83.2,53.5,30.07,SSW,200,2.0,2.0,36,0.00,,,0.00,Wunderground v.1.15,2017-06-23 19:28:00,
2017-06-23 12:34:00,83.2,51.9,30.07,West,262,2.0,3.0,34,0.00,,,0.00,Wunderground v.1.15,2017-06-23 19:34:00,